Terminal Aerodrome Forecast
Issued by NWS

Home | Current Version | Previous Version | Text Only | Print | Product List | Glossary Off
Versions: 1 2 3 4 5 6 7 8 9 10 11 12 13 14 15 16

000
FTUS43 KGRB 200520
TAFCWA
TAF
KCWA 200520Z 2006/2106 12007KT P6SM BKN250
     FM201000 13008KT P6SM SCT010
      TEMPO 2010/2014 5SM BR BKN010
     FM201400 17010G17KT P6SM BKN025
      TEMPO 2020/2024 3SM -TSRA OVC025CB
     FM210000 30004KT 5SM -SHRA BR BKN020=

USA.gov is the U.S. government's official web portal to all federal, state and local government web resources and services.